Thursday, March 30, 2017, 2:23 PM EDT

KMDT, Harrisburg International Airport

Location: Middletown, PA, United States Lat: 40.2
Local Time: 2:23 PM EDT (18:23 GMT) Lon: -76.767
Time Zone: US/Eastern Elev: 308 ft

Show me the last for .
Show Decoded

2017-03-30 13:56 METAR KMDT 301756Z 16005KT 10SM OVC055 09/M01 A3018 RMK AO2 SLP221 T00891011
                 10089 20050 58022 =
2017-03-30 12:56 METAR KMDT 301656Z 12005KT 10SM BKN070 OVC085 08/M02 A3020 RMK AO2 SLP230
                 T00781022 =
2017-03-30 11:56 METAR KMDT 301556Z 14004KT 10SM OVC085 08/M02 A3022 =
2017-03-30 10:56 METAR KMDT 301456Z 14005KT 10SM BKN120 08/M02 A3024 =
2017-03-30 09:56 METAR KMDT 301356Z 13007KT 10SM SCT120 BKN150 07/M03 A3026 =
2017-03-30 08:56 METAR KMDT 301256Z VRB05KT 10SM SCT070 OVC150 06/M03 A3026 =
2017-03-30 07:56 METAR KMDT 301156Z 00000KT 10SM SCT070 OVC150 05/M03 A3027 =
2017-03-30 06:56 METAR KMDT 301056Z 00000KT 10SM SCT070 OVC150 04/M03 A3026 RMK AO2 SLP250
                 T00391028 =
2017-03-30 05:56 METAR KMDT 300956Z 00000KT 10SM BKN250 04/M02 A3026 RMK AO2 SLP249 T00441022 =
2017-03-30 04:56 METAR KMDT 300856Z 00000KT 10SM FEW150 BKN200 04/M03 A3024 RMK AO2 SLP243
                 T00391033 51017 =
2017-03-30 03:56 METAR KMDT 300756Z 05003KT 10SM BKN160 05/M03 A3023 RMK AO2 SLP238 T00501028 =
2017-03-30 02:56 METAR KMDT 300656Z 04004KT 10SM SCT250 05/M03 A3023 =
2017-03-30 01:56 METAR KMDT 300556Z 03004KT 10SM FEW150 BKN250 06/M03 A3019 RMK AO2 SLP226
                 T00611033 10117 20061 58010 =
2017-03-30 00:56 METAR KMDT 300456Z 05004KT 10SM SCT160 07/M03 A3022 RMK AO2 SLP233 T00721028
                 401500067 =
2017-03-29 23:56 METAR KMDT 300356Z 05005KT 10SM SCT180 08/M02 A3022 =
2017-03-29 22:56 METAR KMDT 300256Z 00000KT 10SM FEW250 09/M02 A3022 RMK AO2 SLP235 T00891022
                 53015 =
2017-03-29 21:56 METAR KMDT 300156Z 00000KT 10SM FEW060 FEW250 09/M02 A3020 RMK AO2 SLP230
                 T00891022 =
2017-03-29 20:56 METAR KMDT 300056Z 34004KT 10SM FEW060 FEW250 11/M02 A3019 =
2017-03-29 19:56 METAR KMDT 292356Z 01004KT 10SM FEW060 FEW250 12/M02 A3018 RMK AO2 SLP221
                 T01171017 10150 20117 53016 =
2017-03-29 18:56 METAR KMDT 292256Z 01003KT 10SM FEW060 FEW250 13/M01 A3015 RMK AO2 SLP213
                 T01331011 =
2017-03-29 17:56 METAR KMDT 292156Z 35012KT 10SM FEW060 14/M01 A3013 =
2017-03-29 16:56 METAR KMDT 292056Z 36010KT 10SM FEW060 14/M01 A3013 RMK AO2 SLP204 T01391006
                 55002 =
2017-03-29 15:56 METAR KMDT 291956Z 01009G17KT 320V040 10SM FEW060 FEW250 15/01 A3011 =
2017-03-29 14:56 METAR KMDT 291856Z 35010G17KT 10SM FEW060 FEW250 14/01 A3012 =

Support USWX by starting your Amazon purchase here.